sensor_id;sensor_type;location;lat;lon;timestamp;pressure;altitude;pressure_sealevel;temperature;humidity
16190;BME280;41754;51.498;7.540;2023-03-23T00:02:03;99229.94;;;12.32;67.94
16190;BME280;41754;51.498;7.540;2023-03-23T00:04:30;99230.00;;;11.95;69.56
16190;BME280;41754;51.498;7.540;2023-03-23T00:06:57;99229.66;;;11.85;70.04
16190;BME280;41754;51.498;7.540;2023-03-23T00:09:26;99238.25;;;11.95;69.66
16190;BME280;41754;51.498;7.540;2023-03-23T00:11:53;99231.13;;;12.07;69.78
16190;BME280;41754;51.498;7.540;2023-03-23T00:14:22;99218.69;;;12.25;69.23
16190;BME280;41754;51.498;7.540;2023-03-23T00:16:51;99209.63;;;12.12;69.74
16190;BME280;41754;51.498;7.540;2023-03-23T00:19:18;99218.03;;;12.04;69.68
16190;BME280;41754;51.498;7.540;2023-03-23T00:21:45;99226.53;;;11.98;69.53
16190;BME280;41754;51.498;7.540;2023-03-23T00:24:14;99210.91;;;12.15;69.27
16190;BME280;41754;51.498;7.540;2023-03-23T00:26:44;99199.19;;;12.06;69.25
16190;BME280;41754;51.498;7.540;2023-03-23T00:29:13;99203.81;;;12.02;68.98
16190;BME280;41754;51.498;7.540;2023-03-23T00:31:41;99199.16;;;12.18;69.18
16190;BME280;41754;51.498;7.540;2023-03-23T00:34:14;99197.31;;;12.22;68.66
16190;BME280;41754;51.498;7.540;2023-03-23T00:36:44;99198.16;;;12.50;67.37
16190;BME280;41754;51.498;7.540;2023-03-23T00:39:12;99183.31;;;12.55;66.69
16190;BME280;41754;51.498;7.540;2023-03-23T00:41:41;99193.63;;;12.58;66.59
16190;BME280;41754;51.498;7.540;2023-03-23T00:44:09;99189.22;;;12.41;66.88
16190;BME280;41754;51.498;7.540;2023-03-23T00:46:42;99181.84;;;12.05;67.66
16190;BME280;41754;51.498;7.540;2023-03-23T00:49:11;99187.56;;;12.12;67.78
16190;BME280;41754;51.498;7.540;2023-03-23T00:51:40;99183.81;;;12.05;67.93
16190;BME280;41754;51.498;7.540;2023-03-23T00:54:08;99166.75;;;12.55;66.84
16190;BME280;41754;51.498;7.540;2023-03-23T00:56:36;99174.69;;;12.56;66.05
16190;BME280;41754;51.498;7.540;2023-03-23T00:59:04;99172.59;;;12.66;65.44
16190;BME280;41754;51.498;7.540;2023-03-23T01:01:31;99172.72;;;12.29;66.44
16190;BME280;41754;51.498;7.540;2023-03-23T01:03:58;99173.78;;;12.52;65.81
16190;BME280;41754;51.498;7.540;2023-03-23T01:06:30;99184.59;;;12.45;66.08
16190;BME280;41754;51.498;7.540;2023-03-23T01:08:58;99176.84;;;12.23;67.37
16190;BME280;41754;51.498;7.540;2023-03-23T01:11:26;99171.91;;;11.64;69.26
16190;BME280;41754;51.498;7.540;2023-03-23T01:13:53;99172.25;;;11.50;69.79
16190;BME280;41754;51.498;7.540;2023-03-23T01:16:20;99181.00;;;11.64;69.35
16190;BME280;41754;51.498;7.540;2023-03-23T01:18:47;99173.72;;;11.72;68.90
16190;BME280;41754;51.498;7.540;2023-03-23T01:21:15;99181.44;;;11.66;68.90
16190;BME280;41754;51.498;7.540;2023-03-23T01:23:43;99168.19;;;11.96;68.40
16190;BME280;41754;51.498;7.540;2023-03-23T01:26:13;99174.41;;;11.81;68.85
16190;BME280;41754;51.498;7.540;2023-03-23T01:28:41;99170.75;;;11.77;68.31
16190;BME280;41754;51.498;7.540;2023-03-23T01:31:10;99194.63;;;11.49;69.04
16190;BME280;41754;51.498;7.540;2023-03-23T01:33:38;99194.41;;;11.78;69.27
16190;BME280;41754;51.498;7.540;2023-03-23T01:36:09;99190.25;;;11.96;68.80
16190;BME280;41754;51.498;7.540;2023-03-23T01:38:38;99197.84;;;11.63;70.42
16190;BME280;41754;51.498;7.540;2023-03-23T01:41:05;99185.44;;;11.45;71.44
16190;BME280;41754;51.498;7.540;2023-03-23T01:43:33;99176.16;;;11.49;73.08
16190;BME280;41754;51.498;7.540;2023-03-23T01:46:00;99168.13;;;11.44;73.24
16190;BME280;41754;51.498;7.540;2023-03-23T01:48:29;99167.03;;;11.24;75.43
16190;BME280;41754;51.498;7.540;2023-03-23T01:51:01;99151.88;;;10.94;78.08
16190;BME280;41754;51.498;7.540;2023-03-23T01:53:32;99161.59;;;10.91;78.02
16190;BME280;41754;51.498;7.540;2023-03-23T01:56:02;99181.28;;;11.14;78.71
16190;BME280;41754;51.498;7.540;2023-03-23T01:58:33;99197.75;;;11.02;78.40
16190;BME280;41754;51.498;7.540;2023-03-23T02:01:04;99193.63;;;11.08;78.83
16190;BME280;41754;51.498;7.540;2023-03-23T02:03:32;99196.59;;;10.91;81.27
16190;BME280;41754;51.498;7.540;2023-03-23T02:06:01;99200.50;;;11.02;79.71
16190;BME280;41754;51.498;7.540;2023-03-23T02:08:37;99193.75;;;11.11;79.62
16190;BME280;41754;51.498;7.540;2023-03-23T02:11:12;99208.59;;;10.86;79.81
16190;BME280;41754;51.498;7.540;2023-03-23T02:13:42;99189.44;;;10.77;81.23
16190;BME280;41754;51.498;7.540;2023-03-23T02:16:15;99156.56;;;10.60;82.59
16190;BME280;41754;51.498;7.540;2023-03-23T02:18:55;99135.56;;;10.89;80.35
16190;BME280;41754;51.498;7.540;2023-03-23T02:21:49;99112.44;;;10.57;80.80
16190;BME280;41754;51.498;7.540;2023-03-23T02:24:42;99114.16;;;10.61;79.63
16190;BME280;41754;51.498;7.540;2023-03-23T02:27:25;99109.69;;;10.57;79.42
16190;BME280;41754;51.498;7.540;2023-03-23T02:30:14;99118.28;;;10.55;79.81
16190;BME280;41754;51.498;7.540;2023-03-23T02:33:19;99126.28;;;10.93;80.15
16190;BME280;41754;51.498;7.540;2023-03-23T02:35:53;99120.38;;;10.70;82.30
16190;BME280;41754;51.498;7.540;2023-03-23T02:38:27;99115.00;;;10.74;81.91
16190;BME280;41754;51.498;7.540;2023-03-23T02:40:56;99098.63;;;10.77;82.93
16190;BME280;41754;51.498;7.540;2023-03-23T02:43:28;99106.03;;;10.52;83.36
16190;BME280;41754;51.498;7.540;2023-03-23T02:45:57;99116.03;;;10.69;82.41
16190;BME280;41754;51.498;7.540;2023-03-23T02:48:30;99118.03;;;10.48;82.12
16190;BME280;41754;51.498;7.540;2023-03-23T02:50:58;99123.13;;;10.70;81.74
16190;BME280;41754;51.498;7.540;2023-03-23T02:53:28;99131.50;;;10.74;82.44
16190;BME280;41754;51.498;7.540;2023-03-23T02:55:57;99114.13;;;10.94;82.53
16190;BME280;41754;51.498;7.540;2023-03-23T02:58:28;99117.69;;;10.95;81.46
16190;BME280;41754;51.498;7.540;2023-03-23T03:00:56;99099.22;;;10.95;81.63
16190;BME280;41754;51.498;7.540;2023-03-23T03:03:26;99094.28;;;10.89;81.24
16190;BME280;41754;51.498;7.540;2023-03-23T03:06:03;99098.16;;;10.75;82.18
16190;BME280;41754;51.498;7.540;2023-03-23T03:08:41;99089.94;;;11.00;80.49
16190;BME280;41754;51.498;7.540;2023-03-23T03:11:12;99086.81;;;11.01;80.41
16190;BME280;41754;51.498;7.540;2023-03-23T03:13:46;99091.31;;;11.06;80.14
16190;BME280;41754;51.498;7.540;2023-03-23T03:16:23;99069.06;;;11.11;79.71
16190;BME280;41754;51.498;7.540;2023-03-23T03:18:56;99077.75;;;10.76;80.83
16190;BME280;41754;51.498;7.540;2023-03-23T03:21:28;99088.91;;;10.92;81.11
16190;BME280;41754;51.498;7.540;2023-03-23T03:24:00;99096.47;;;10.95;80.80
16190;BME280;41754;51.498;7.540;2023-03-23T03:26:29;99097.63;;;10.94;80.66
16190;BME280;41754;51.498;7.540;2023-03-23T03:29:09;99083.94;;;10.86;80.52
16190;BME280;41754;51.498;7.540;2023-03-23T03:31:42;99090.63;;;11.09;80.36
16190;BME280;41754;51.498;7.540;2023-03-23T03:34:12;99075.50;;;11.03;80.63
16190;BME280;41754;51.498;7.540;2023-03-23T03:36:48;99076.75;;;11.05;79.12
16190;BME280;41754;51.498;7.540;2023-03-23T03:39:16;99098.66;;;10.90;79.90
16190;BME280;41754;51.498;7.540;2023-03-23T03:41:45;99089.28;;;11.15;78.50
16190;BME280;41754;51.498;7.540;2023-03-23T03:44:12;99083.16;;;10.97;78.46
16190;BME280;41754;51.498;7.540;2023-03-23T03:46:39;99080.06;;;10.99;77.79
16190;BME280;41754;51.498;7.540;2023-03-23T03:49:08;99079.41;;;10.90;77.71
16190;BME280;41754;51.498;7.540;2023-03-23T03:51:38;99077.09;;;10.92;77.58
16190;BME280;41754;51.498;7.540;2023-03-23T03:54:08;99075.97;;;11.29;76.01
16190;BME280;41754;51.498;7.540;2023-03-23T03:56:36;99086.53;;;11.27;74.71
16190;BME280;41754;51.498;7.540;2023-03-23T03:59:37;99083.97;;;11.22;74.91
16190;BME280;41754;51.498;7.540;2023-03-23T04:02:28;99074.91;;;11.22;73.67
16190;BME280;41754;51.498;7.540;2023-03-23T04:04:55;99066.56;;;11.06;74.34
16190;BME280;41754;51.498;7.540;2023-03-23T04:07:22;99082.63;;;11.04;74.42
16190;BME280;41754;51.498;7.540;2023-03-23T04:09:53;99084.56;;;11.40;73.42
16190;BME280;41754;51.498;7.540;2023-03-23T04:12:20;99087.41;;;11.31;73.94
16190;BME280;41754;51.498;7.540;2023-03-23T04:14:56;99071.59;;;11.28;74.59
16190;BME280;41754;51.498;7.540;2023-03-23T04:17:29;99073.66;;;11.19;73.84
16190;BME280;41754;51.498;7.540;2023-03-23T04:19:56;99083.97;;;11.34;72.87
16190;BME280;41754;51.498;7.540;2023-03-23T04:22:25;99072.75;;;11.15;72.98
16190;BME280;41754;51.498;7.540;2023-03-23T04:24:59;99078.69;;;11.42;71.77
16190;BME280;41754;51.498;7.540;2023-03-23T04:27:30;99072.25;;;11.25;72.51
16190;BME280;41754;51.498;7.540;2023-03-23T04:29:59;99083.97;;;11.22;72.96
16190;BME280;41754;51.498;7.540;2023-03-23T04:32:40;99082.81;;;11.11;73.46
16190;BME280;41754;51.498;7.540;2023-03-23T04:35:09;99082.03;;;11.35;72.86
16190;BME280;41754;51.498;7.540;2023-03-23T04:37:43;99090.72;;;11.37;72.74
16190;BME280;41754;51.498;7.540;2023-03-23T04:40:15;99078.25;;;11.39;71.43
16190;BME280;41754;51.498;7.540;2023-03-23T04:42:48;99070.44;;;11.42;71.37
16190;BME280;41754;51.498;7.540;2023-03-23T04:45:38;99075.59;;;11.06;72.87
16190;BME280;41754;51.498;7.540;2023-03-23T04:48:07;99071.94;;;11.39;72.06
16190;BME280;41754;51.498;7.540;2023-03-23T04:50:43;99082.13;;;11.38;71.68
16190;BME280;41754;51.498;7.540;2023-03-23T04:53:20;99067.22;;;11.39;70.63
16190;BME280;41754;51.498;7.540;2023-03-23T04:55:49;99079.28;;;11.47;71.18
16190;BME280;41754;51.498;7.540;2023-03-23T04:58:18;99080.06;;;11.35;71.24
16190;BME280;41754;51.498;7.540;2023-03-23T05:01:00;99087.41;;;11.07;72.28
16190;BME280;41754;51.498;7.540;2023-03-23T05:03:27;99073.44;;;11.49;71.08
16190;BME280;41754;51.498;7.540;2023-03-23T05:05:56;99074.78;;;11.67;69.94
16190;BME280;41754;51.498;7.540;2023-03-23T05:08:23;99091.31;;;11.43;70.59
16190;BME280;41754;51.498;7.540;2023-03-23T05:10:53;99082.59;;;11.40;70.32
16190;BME280;41754;51.498;7.540;2023-03-23T05:13:23;99083.19;;;11.22;70.61
16190;BME280;41754;51.498;7.540;2023-03-23T05:15:53;99090.41;;;11.26;71.24
16190;BME280;41754;51.498;7.540;2023-03-23T05:18:20;99093.84;;;11.35;71.08
16190;BME280;41754;51.498;7.540;2023-03-23T05:20:48;99103.94;;;11.31;70.56
16190;BME280;41754;51.498;7.540;2023-03-23T05:23:20;99088.75;;;11.74;68.96
16190;BME280;41754;51.498;7.540;2023-03-23T05:25:54;99100.75;;;11.54;69.74
16190;BME280;41754;51.498;7.540;2023-03-23T05:28:22;99103.84;;;11.52;70.20
16190;BME280;41754;51.498;7.540;2023-03-23T05:31:02;99104.75;;;11.56;69.66
16190;BME280;41754;51.498;7.540;2023-03-23T05:33:31;99097.75;;;11.59;68.97
16190;BME280;41754;51.498;7.540;2023-03-23T05:35:58;99100.47;;;11.71;68.40
16190;BME280;41754;51.498;7.540;2023-03-23T05:38:31;99109.66;;;11.38;69.54
16190;BME280;41754;51.498;7.540;2023-03-23T05:41:00;99103.72;;;11.49;70.31
16190;BME280;41754;51.498;7.540;2023-03-23T05:43:36;99102.09;;;11.72;69.14
16190;BME280;41754;51.498;7.540;2023-03-23T05:46:12;99107.25;;;11.61;68.66
16190;BME280;41754;51.498;7.540;2023-03-23T05:48:40;99115.19;;;11.14;69.85
16190;BME280;41754;51.498;7.540;2023-03-23T05:51:12;99109.00;;;11.42;70.34
16190;BME280;41754;51.498;7.540;2023-03-23T05:53:42;99121.38;;;11.72;68.70
16190;BME280;41754;51.498;7.540;2023-03-23T05:56:12;99117.94;;;11.51;68.49
16190;BME280;41754;51.498;7.540;2023-03-23T05:58:59;99113.81;;;11.69;67.89
16190;BME280;41754;51.498;7.540;2023-03-23T06:01:30;99113.88;;;11.85;67.50
16190;BME280;41754;51.498;7.540;2023-03-23T06:03:57;99110.59;;;11.67;67.66
16190;BME280;41754;51.498;7.540;2023-03-23T06:06:36;99107.88;;;11.55;67.57
16190;BME280;41754;51.498;7.540;2023-03-23T06:09:07;99122.47;;;11.95;67.46
16190;BME280;41754;51.498;7.540;2023-03-23T06:12:04;99124.81;;;11.81;67.38
16190;BME280;41754;51.498;7.540;2023-03-23T06:14:45;99123.19;;;11.92;67.25
16190;BME280;41754;51.498;7.540;2023-03-23T06:17:15;99123.31;;;11.84;66.88
16190;BME280;41754;51.498;7.540;2023-03-23T06:19:45;99122.97;;;11.85;66.33
16190;BME280;41754;51.498;7.540;2023-03-23T06:22:15;99134.63;;;11.54;67.78
16190;BME280;41754;51.498;7.540;2023-03-23T06:24:42;99127.81;;;11.76;67.93
16190;BME280;41754;51.498;7.540;2023-03-23T06:27:13;99131.25;;;11.73;67.38
16190;BME280;41754;51.498;7.540;2023-03-23T06:29:42;99132.19;;;11.77;66.74
16190;BME280;41754;51.498;7.540;2023-03-23T06:32:11;99138.81;;;11.88;67.34
16190;BME280;41754;51.498;7.540;2023-03-23T06:34:41;99135.50;;;11.83;66.70
16190;BME280;41754;51.498;7.540;2023-03-23T06:37:34;99139.59;;;12.01;66.55
16190;BME280;41754;51.498;7.540;2023-03-23T06:40:13;99137.22;;;11.75;66.63
16190;BME280;41754;51.498;7.540;2023-03-23T06:42:50;99146.41;;;11.79;67.35
16190;BME280;41754;51.498;7.540;2023-03-23T06:45:23;99158.31;;;12.36;66.04
16190;BME280;41754;51.498;7.540;2023-03-23T06:47:58;99141.97;;;12.15;65.74
16190;BME280;41754;51.498;7.540;2023-03-23T06:50:27;99142.94;;;11.94;65.49
16190;BME280;41754;51.498;7.540;2023-03-23T06:52:54;99148.34;;;12.31;65.35
16190;BME280;41754;51.498;7.540;2023-03-23T06:55:21;99146.34;;;12.16;64.70
16190;BME280;41754;51.498;7.540;2023-03-23T06:57:49;99143.53;;;12.28;64.41
16190;BME280;41754;51.498;7.540;2023-03-23T07:00:16;99142.56;;;12.36;65.21
16190;BME280;41754;51.498;7.540;2023-03-23T07:02:43;99143.16;;;12.57;63.76
16190;BME280;41754;51.498;7.540;2023-03-23T07:05:12;99144.63;;;12.39;62.93
16190;BME280;41754;51.498;7.540;2023-03-23T07:07:40;99137.75;;;12.89;61.69
16190;BME280;41754;51.498;7.540;2023-03-23T07:10:32;99157.97;;;12.37;63.66
16190;BME280;41754;51.498;7.540;2023-03-23T07:13:01;99150.28;;;12.31;63.35
16190;BME280;41754;51.498;7.540;2023-03-23T07:15:38;99156.13;;;12.69;62.15
16190;BME280;41754;51.498;7.540;2023-03-23T07:18:05;99152.84;;;12.64;62.23
16190;BME280;41754;51.498;7.540;2023-03-23T07:20:42;99148.06;;;12.76;61.15
16190;BME280;41754;51.498;7.540;2023-03-23T07:23:09;99146.56;;;12.95;60.31
16190;BME280;41754;51.498;7.540;2023-03-23T07:25:43;99150.03;;;12.92;60.55
16190;BME280;41754;51.498;7.540;2023-03-23T07:28:17;99148.78;;;12.89;59.92
16190;BME280;41754;51.498;7.540;2023-03-23T07:30:45;99155.41;;;13.00;59.96
16190;BME280;41754;51.498;7.540;2023-03-23T07:33:12;99158.00;;;12.65;60.32
16190;BME280;41754;51.498;7.540;2023-03-23T07:35:40;99171.91;;;12.69;59.07
16190;BME280;41754;51.498;7.540;2023-03-23T07:38:10;99151.28;;;12.94;59.25
16190;BME280;41754;51.498;7.540;2023-03-23T07:40:38;99159.44;;;12.75;59.47
16190;BME280;41754;51.498;7.540;2023-03-23T07:43:11;99161.19;;;13.11;58.89
16190;BME280;41754;51.498;7.540;2023-03-23T07:45:58;99173.81;;;13.12;58.17
16190;BME280;41754;51.498;7.540;2023-03-23T07:48:34;99174.81;;;12.88;58.77
16190;BME280;41754;51.498;7.540;2023-03-23T07:51:01;99158.25;;;13.20;58.21
16190;BME280;41754;51.498;7.540;2023-03-23T07:53:29;99167.13;;;12.81;58.92
16190;BME280;41754;51.498;7.540;2023-03-23T07:56:09;99171.56;;;12.86;58.97
16190;BME280;41754;51.498;7.540;2023-03-23T07:58:52;99167.78;;;13.06;58.05
16190;BME280;41754;51.498;7.540;2023-03-23T08:01:21;99166.03;;;12.86;59.29
16190;BME280;41754;51.498;7.540;2023-03-23T08:04:08;99159.03;;;12.89;59.12
16190;BME280;41754;51.498;7.540;2023-03-23T08:06:52;99169.97;;;12.85;58.86
16190;BME280;41754;51.498;7.540;2023-03-23T08:09:39;99158.41;;;13.11;57.94
16190;BME280;41754;51.498;7.540;2023-03-23T08:12:19;99176.34;;;13.33;56.61
16190;BME280;41754;51.498;7.540;2023-03-23T08:15:22;99171.81;;;13.25;56.27
16190;BME280;41754;51.498;7.540;2023-03-23T08:17:58;99171.00;;;13.40;56.60
16190;BME280;41754;51.498;7.540;2023-03-23T08:20:56;99178.59;;;13.75;55.76
16190;BME280;41754;51.498;7.540;2023-03-23T08:23:48;99179.44;;;13.47;56.25
16190;BME280;41754;51.498;7.540;2023-03-23T08:26:37;99171.84;;;13.91;54.43
16190;BME280;41754;51.498;7.540;2023-03-23T08:29:22;99177.50;;;13.00;56.25
16190;BME280;41754;51.498;7.540;2023-03-23T08:31:59;99168.03;;;13.64;55.42
16190;BME280;41754;51.498;7.540;2023-03-23T08:34:48;99187.66;;;13.28;55.28
16190;BME280;41754;51.498;7.540;2023-03-23T08:37:36;99166.38;;;14.30;53.65
16190;BME280;41754;51.498;7.540;2023-03-23T08:40:32;99181.00;;;14.30;52.52
16190;BME280;41754;51.498;7.540;2023-03-23T08:43:25;99190.50;;;13.47;54.42
16190;BME280;41754;51.498;7.540;2023-03-23T08:46:13;99175.59;;;13.83;53.74
16190;BME280;41754;51.498;7.540;2023-03-23T08:48:49;99166.53;;;14.76;51.74
16190;BME280;41754;51.498;7.540;2023-03-23T08:51:30;99181.09;;;14.53;51.17
16190;BME280;41754;51.498;7.540;2023-03-23T08:54:11;99190.47;;;14.29;52.04
16190;BME280;41754;51.498;7.540;2023-03-23T08:56:59;99184.06;;;14.45;51.63
16190;BME280;41754;51.498;7.540;2023-03-23T08:59:45;99170.66;;;14.85;51.01
16190;BME280;41754;51.498;7.540;2023-03-23T09:02:30;99187.03;;;14.36;51.33
16190;BME280;41754;51.498;7.540;2023-03-23T09:05:14;99188.03;;;14.82;50.99
16190;BME280;41754;51.498;7.540;2023-03-23T09:08:00;99200.25;;;14.81;51.04
16190;BME280;41754;51.498;7.540;2023-03-23T09:10:29;99202.91;;;14.74;50.52
16190;BME280;41754;51.498;7.540;2023-03-23T09:12:56;99197.19;;;14.67;50.00
16190;BME280;41754;51.498;7.540;2023-03-23T09:15:23;99206.81;;;14.73;50.12
16190;BME280;41754;51.498;7.540;2023-03-23T09:17:51;99199.69;;;14.72;50.20
16190;BME280;41754;51.498;7.540;2023-03-23T09:20:22;99194.66;;;15.20;49.05
16190;BME280;41754;51.498;7.540;2023-03-23T09:22:51;99195.31;;;15.59;48.52
16190;BME280;41754;51.498;7.540;2023-03-23T09:25:22;99211.00;;;15.71;48.76
16190;BME280;41754;51.498;7.540;2023-03-23T09:27:53;99221.94;;;15.18;49.97
16190;BME280;41754;51.498;7.540;2023-03-23T09:30:23;99211.19;;;14.55;50.81
16190;BME280;41754;51.498;7.540;2023-03-23T09:32:52;99208.56;;;14.81;50.37
16190;BME280;41754;51.498;7.540;2023-03-23T09:35:19;99215.19;;;14.96;49.54
16190;BME280;41754;51.498;7.540;2023-03-23T09:37:48;99205.63;;;15.13;49.40
16190;BME280;41754;51.498;7.540;2023-03-23T09:40:18;99208.41;;;15.13;48.89
16190;BME280;41754;51.498;7.540;2023-03-23T09:43:19;99210.75;;;14.72;49.70
16190;BME280;41754;51.498;7.540;2023-03-23T09:45:53;99207.56;;;14.70;50.19
16190;BME280;41754;51.498;7.540;2023-03-23T09:48:32;99199.66;;;15.11;49.35
16190;BME280;41754;51.498;7.540;2023-03-23T09:51:08;99207.34;;;14.79;49.68
16190;BME280;41754;51.498;7.540;2023-03-23T09:53:39;99214.56;;;15.48;48.20
16190;BME280;41754;51.498;7.540;2023-03-23T09:56:13;99223.97;;;15.21;47.95
16190;BME280;41754;51.498;7.540;2023-03-23T09:58:46;99234.22;;;14.98;48.98
16190;BME280;41754;51.498;7.540;2023-03-23T10:01:17;99238.81;;;14.90;48.72
16190;BME280;41754;51.498;7.540;2023-03-23T10:03:46;99221.53;;;14.39;50.58
16190;BME280;41754;51.498;7.540;2023-03-23T10:06:16;99211.56;;;14.73;48.60
16190;BME280;41754;51.498;7.540;2023-03-23T10:08:47;99212.34;;;15.12;48.12
16190;BME280;41754;51.498;7.540;2023-03-23T10:11:19;99206.16;;;15.22;48.55
16190;BME280;41754;51.498;7.540;2023-03-23T10:16:42;99231.16;;;16.47;44.84
16190;BME280;41754;51.498;7.540;2023-03-23T10:19:18;99227.63;;;15.71;45.87
16190;BME280;41754;51.498;7.540;2023-03-23T10:21:50;99221.84;;;16.06;45.79
16190;BME280;41754;51.498;7.540;2023-03-23T10:24:21;99217.03;;;15.76;46.58
16190;BME280;41754;51.498;7.540;2023-03-23T10:26:57;99231.81;;;15.38;46.38
16190;BME280;41754;51.498;7.540;2023-03-23T10:29:31;99239.31;;;15.15;48.92
16190;BME280;41754;51.498;7.540;2023-03-23T10:32:04;99241.31;;;14.60;49.95
16190;BME280;41754;51.498;7.540;2023-03-23T10:34:41;99251.16;;;14.57;49.84
16190;BME280;41754;51.498;7.540;2023-03-23T10:37:12;99259.66;;;14.29;49.78
16190;BME280;41754;51.498;7.540;2023-03-23T10:39:47;99259.84;;;14.56;49.62
16190;BME280;41754;51.498;7.540;2023-03-23T10:42:22;99283.56;;;14.38;49.25
16190;BME280;41754;51.498;7.540;2023-03-23T10:44:51;99277.66;;;13.72;54.43
16190;BME280;41754;51.498;7.540;2023-03-23T10:47:19;99300.38;;;12.42;58.91
16190;BME280;41754;51.498;7.540;2023-03-23T10:49:49;99302.91;;;12.22;62.78
16190;BME280;41754;51.498;7.540;2023-03-23T10:52:25;99323.16;;;12.26;65.48
16190;BME280;41754;51.498;7.540;2023-03-23T10:54:56;99342.63;;;11.73;67.86
16190;BME280;41754;51.498;7.540;2023-03-23T10:57:26;99343.03;;;11.50;69.78
16190;BME280;41754;51.498;7.540;2023-03-23T11:00:00;99337.25;;;11.64;69.83
16190;BME280;41754;51.498;7.540;2023-03-23T11:02:35;99334.72;;;11.83;69.13
16190;BME280;41754;51.498;7.540;2023-03-23T11:05:06;99331.88;;;12.04;68.44
16190;BME280;41754;51.498;7.540;2023-03-23T11:07:35;99336.13;;;12.50;67.13
16190;BME280;41754;51.498;7.540;2023-03-23T11:10:16;99344.06;;;12.40;68.13
16190;BME280;41754;51.498;7.540;2023-03-23T11:12:44;99358.28;;;11.81;68.94
16190;BME280;41754;51.498;7.540;2023-03-23T11:15:26;99343.91;;;12.73;67.25
16190;BME280;41754;51.498;7.540;2023-03-23T11:17:56;99341.19;;;12.36;68.37
16190;BME280;41754;51.498;7.540;2023-03-23T11:20:24;99339.78;;;12.79;67.51
16190;BME280;41754;51.498;7.540;2023-03-23T11:22:52;99338.84;;;12.75;66.59
16190;BME280;41754;51.498;7.540;2023-03-23T11:25:19;99340.38;;;12.23;68.12
16190;BME280;41754;51.498;7.540;2023-03-23T11:27:46;99349.44;;;11.99;70.38
16190;BME280;41754;51.498;7.540;2023-03-23T11:30:22;99354.97;;;12.48;68.51
16190;BME280;41754;51.498;7.540;2023-03-23T11:32:51;99358.16;;;11.77;70.52
16190;BME280;41754;51.498;7.540;2023-03-23T11:35:21;99348.94;;;11.73;71.26
16190;BME280;41754;51.498;7.540;2023-03-23T11:37:51;99346.22;;;12.46;70.73
16190;BME280;41754;51.498;7.540;2023-03-23T11:40:21;99354.28;;;12.03;71.82
16190;BME280;41754;51.498;7.540;2023-03-23T11:42:57;99348.44;;;12.04;72.17
16190;BME280;41754;51.498;7.540;2023-03-23T11:45:31;99359.78;;;11.90;72.44
16190;BME280;41754;51.498;7.540;2023-03-23T11:48:12;99349.53;;;11.66;72.92
16190;BME280;41754;51.498;7.540;2023-03-23T11:50:49;99360.94;;;11.44;75.88
16190;BME280;41754;51.498;7.540;2023-03-23T11:53:23;99359.75;;;11.66;74.46
16190;BME280;41754;51.498;7.540;2023-03-23T11:55:55;99354.63;;;11.89;74.59
16190;BME280;41754;51.498;7.540;2023-03-23T11:58:24;99356.31;;;11.69;75.56
16190;BME280;41754;51.498;7.540;2023-03-23T12:01:04;99360.56;;;11.79;75.80
16190;BME280;41754;51.498;7.540;2023-03-23T12:03:47;99360.91;;;11.65;75.96
16190;BME280;41754;51.498;7.540;2023-03-23T12:06:25;99355.66;;;11.96;76.68
16190;BME280;41754;51.498;7.540;2023-03-23T12:09:07;99348.31;;;11.88;76.17
16190;BME280;41754;51.498;7.540;2023-03-23T12:11:41;99346.94;;;11.49;75.61
16190;BME280;41754;51.498;7.540;2023-03-23T12:14:18;99347.50;;;12.00;75.55
16190;BME280;41754;51.498;7.540;2023-03-23T12:17:00;99346.94;;;12.19;74.28
16190;BME280;41754;51.498;7.540;2023-03-23T12:19:37;99349.00;;;12.10;73.65
16190;BME280;41754;51.498;7.540;2023-03-23T12:22:17;99345.72;;;11.59;73.69
16190;BME280;41754;51.498;7.540;2023-03-23T12:24:57;99343.47;;;12.10;73.03
16190;BME280;41754;51.498;7.540;2023-03-23T12:27:31;99360.56;;;11.79;74.87
16190;BME280;41754;51.498;7.540;2023-03-23T12:30:09;99346.47;;;12.41;75.15
16190;BME280;41754;51.498;7.540;2023-03-23T12:32:50;99337.50;;;12.44;71.87
16190;BME280;41754;51.498;7.540;2023-03-23T12:35:31;99347.50;;;12.61;71.25
16190;BME280;41754;51.498;7.540;2023-03-23T12:38:16;99353.13;;;11.91;75.40
16190;BME280;41754;51.498;7.540;2023-03-23T12:40:55;99347.19;;;12.26;75.04
16190;BME280;41754;51.498;7.540;2023-03-23T12:43:33;99341.66;;;12.63;74.65
16190;BME280;41754;51.498;7.540;2023-03-23T12:46:13;99340.38;;;13.12;72.22
16190;BME280;41754;51.498;7.540;2023-03-23T12:48:46;99339.50;;;12.96;69.96
16190;BME280;41754;51.498;7.540;2023-03-23T12:51:19;99339.28;;;12.89;69.84
16190;BME280;41754;51.498;7.540;2023-03-23T12:53:56;99343.13;;;12.48;72.29
16190;BME280;41754;51.498;7.540;2023-03-23T12:56:29;99344.59;;;12.57;71.77
16190;BME280;41754;51.498;7.540;2023-03-23T12:59:09;99345.28;;;12.79;70.77
16190;BME280;41754;51.498;7.540;2023-03-23T13:01:42;99355.38;;;12.87;69.96
16190;BME280;41754;51.498;7.540;2023-03-23T13:04:16;99366.50;;;12.63;70.45
16190;BME280;41754;51.498;7.540;2023-03-23T13:06:46;99363.47;;;12.80;72.00
16190;BME280;41754;51.498;7.540;2023-03-23T13:09:17;99361.53;;;13.08;70.52
16190;BME280;41754;51.498;7.540;2023-03-23T13:11:47;99351.81;;;13.27;70.92
16190;BME280;41754;51.498;7.540;2023-03-23T13:14:28;99364.81;;;12.86;72.19
16190;BME280;41754;51.498;7.540;2023-03-23T13:17:06;99361.13;;;12.94;71.29
16190;BME280;41754;51.498;7.540;2023-03-23T13:22:42;99357.25;;;12.71;73.49
16190;BME280;41754;51.498;7.540;2023-03-23T13:25:18;99347.31;;;12.94;73.54
16190;BME280;41754;51.498;7.540;2023-03-23T13:27:56;99355.91;;;12.65;74.48
16190;BME280;41754;51.498;7.540;2023-03-23T13:30:23;99334.22;;;12.91;73.50
16190;BME280;41754;51.498;7.540;2023-03-23T13:32:50;99331.06;;;12.40;73.96
16190;BME280;41754;51.498;7.540;2023-03-23T13:35:19;99326.44;;;12.69;73.35
16190;BME280;41754;51.498;7.540;2023-03-23T13:37:49;99326.47;;;12.08;74.12
16190;BME280;41754;51.498;7.540;2023-03-23T13:40:24;99321.31;;;12.95;72.65